createdAt,value
2022-08-29T00:01:42.627Z,56.30
2022-08-29T00:04:33.009Z,56.40
2022-08-29T00:07:21.724Z,56.50
2022-08-29T00:10:10.901Z,56.70
2022-08-29T00:12:59.913Z,56.80
2022-08-29T00:15:48.433Z,56.80
2022-08-29T00:18:37.262Z,56.90
2022-08-29T00:21:27.236Z,57.00
2022-08-29T00:24:16.067Z,57.10
2022-08-29T00:27:04.679Z,57.00
2022-08-29T00:29:53.161Z,57.00
2022-08-29T00:32:41.849Z,57.00
2022-08-29T00:35:33.376Z,57.10
2022-08-29T00:38:27.839Z,57.20
2022-08-29T00:41:16.943Z,57.20
2022-08-29T00:44:05.781Z,57.30
2022-08-29T00:46:56.167Z,57.30
2022-08-29T00:49:46.421Z,57.80
2022-08-29T00:52:37.447Z,57.40
2022-08-29T00:55:31.036Z,57.30
2022-08-29T00:58:24.133Z,57.40
2022-08-29T01:01:13.153Z,57.40
2022-08-29T01:04:01.741Z,57.40
2022-08-29T01:06:50.333Z,57.50
2022-08-29T01:09:39.770Z,57.50
2022-08-29T01:12:28.639Z,57.40
2022-08-29T01:15:17.107Z,57.70
2022-08-29T01:18:05.908Z,57.60
2022-08-29T01:21:02.820Z,57.80
2022-08-29T01:23:55.880Z,58.00
2022-08-29T01:26:46.601Z,58.10
2022-08-29T01:29:36.097Z,58.00
2022-08-29T01:32:25.319Z,58.20
2022-08-29T01:35:14.005Z,58.30
2022-08-29T01:38:02.495Z,58.40
2022-08-29T01:40:50.956Z,58.50
2022-08-29T01:43:42.723Z,58.70
2022-08-29T01:46:33.338Z,58.80
2022-08-29T01:49:22.266Z,58.70
2022-08-29T01:52:10.858Z,58.70
2022-08-29T01:54:59.602Z,58.90
2022-08-29T01:57:48.152Z,59.10
2022-08-29T02:00:38.478Z,59.20
2022-08-29T02:03:27.190Z,59.50
2022-08-29T02:06:15.799Z,59.50
2022-08-29T02:09:05.287Z,59.50
2022-08-29T02:11:54.641Z,59.60
2022-08-29T02:14:43.202Z,59.80
2022-08-29T02:17:33.049Z,59.80
2022-08-29T02:20:21.654Z,60.00
2022-08-29T02:23:27.163Z,59.90
2022-08-29T02:26:18.561Z,60.00
2022-08-29T02:29:07.017Z,60.10
2022-08-29T02:31:55.819Z,60.10
2022-08-29T02:34:48.393Z,60.40
2022-08-29T02:37:37.282Z,60.70
2022-08-29T02:40:31.658Z,61.00
2022-08-29T02:43:20.669Z,61.20
2022-08-29T02:46:09.647Z,61.10
2022-08-29T02:49:01.011Z,61.50
2022-08-29T02:51:51.248Z,61.70
2022-08-29T02:54:39.702Z,61.90
2022-08-29T02:57:28.192Z,62.00
2022-08-29T03:00:19.651Z,62.00
2022-08-29T03:03:08.086Z,62.60
2022-08-29T03:05:57.296Z,62.40
2022-08-29T03:08:47.211Z,62.50
2022-08-29T03:11:35.716Z,63.00
2022-08-29T03:14:24.223Z,62.90
2022-08-29T03:17:12.680Z,63.20
2022-08-29T03:20:01.133Z,63.30
2022-08-29T03:22:49.945Z,63.60
2022-08-29T03:25:39.884Z,63.80
2022-08-29T03:28:28.409Z,64.10
2022-08-29T03:31:17.174Z,64.20
2022-08-29T03:34:05.899Z,64.30
2022-08-29T03:36:54.436Z,64.20
2022-08-29T03:39:42.927Z,64.40
2022-08-29T03:42:33.130Z,64.40
2022-08-29T03:45:21.807Z,65.10
2022-08-29T03:48:10.218Z,65.00
2022-08-29T03:50:58.662Z,65.30
2022-08-29T03:53:47.148Z,65.30
2022-08-29T03:56:36.180Z,65.40
2022-08-29T03:59:26.585Z,65.80
2022-08-29T04:02:15.627Z,66.10
2022-08-29T04:05:11.071Z,66.00
2022-08-29T04:08:00.227Z,66.30
2022-08-29T04:10:49.196Z,66.60
2022-08-29T04:13:37.714Z,66.80
2022-08-29T04:16:30.971Z,67.00
2022-08-29T04:19:19.863Z,67.60
2022-08-29T04:22:09.168Z,67.40
2022-08-29T04:24:57.665Z,67.40
2022-08-29T04:27:46.177Z,67.50
2022-08-29T04:30:35.043Z,67.70
2022-08-29T04:33:26.344Z,68.10
2022-08-29T04:36:15.126Z,68.40
2022-08-29T04:39:03.784Z,68.10
2022-08-29T04:41:52.602Z,68.20
2022-08-29T04:44:41.145Z,68.10
2022-08-29T04:47:29.623Z,68.10
2022-08-29T04:50:21.925Z,68.40
2022-08-29T04:53:10.414Z,68.60
2022-08-29T04:55:59.007Z,68.40
2022-08-29T04:58:47.599Z,68.70
2022-08-29T05:01:36.812Z,69.00
2022-08-29T05:04:25.456Z,69.10
2022-08-29T05:07:15.247Z,69.00
2022-08-29T05:10:07.519Z,69.50
2022-08-29T05:12:56.000Z,69.60
2022-08-29T05:15:45.119Z,69.30
2022-08-29T05:18:33.758Z,69.80
2022-08-29T05:21:27.106Z,69.80
2022-08-29T05:24:17.011Z,70.20
2022-08-29T05:27:09.251Z,70.20
2022-08-29T05:29:58.456Z,70.70
2022-08-29T05:32:47.160Z,70.50
2022-08-29T05:35:35.744Z,71.40
2022-08-29T05:38:24.232Z,72.10
2022-08-29T05:41:14.136Z,71.70
2022-08-29T05:44:02.865Z,71.90
2022-08-29T05:46:51.426Z,72.80
2022-08-29T05:49:40.677Z,73.80
2022-08-29T05:52:29.462Z,74.10
2022-08-29T05:55:18.020Z,74.70
2022-08-29T05:58:07.950Z,74.90
2022-08-29T06:00:56.561Z,74.70
2022-08-29T06:03:46.130Z,74.60
2022-08-29T06:06:34.695Z,74.30
2022-08-29T06:09:23.174Z,73.60
2022-08-29T06:12:12.896Z,72.90
2022-08-29T06:15:02.858Z,71.90
2022-08-29T06:17:51.550Z,71.20
2022-08-29T06:20:40.248Z,71.30
2022-08-29T06:23:28.743Z,70.10
2022-08-29T06:26:19.620Z,69.70
2022-08-29T06:29:10.152Z,68.80
2022-08-29T06:32:00.063Z,67.30
2022-08-29T06:34:48.592Z,65.20
2022-08-29T06:37:37.058Z,65.10
2022-08-29T06:40:25.579Z,66.20
2022-08-29T06:43:14.117Z,65.80
2022-08-29T06:46:02.710Z,65.80
2022-08-29T06:48:52.607Z,66.00
2022-08-29T06:51:43.266Z,64.10
2022-08-29T06:54:31.923Z,62.50
2022-08-29T06:57:20.662Z,62.30
2022-08-29T07:00:21.755Z,61.60
2022-08-29T07:03:11.467Z,60.40
2022-08-29T07:06:01.402Z,59.40
2022-08-29T07:08:55.780Z,58.90
2022-08-29T07:11:45.309Z,58.70
2022-08-29T07:14:33.890Z,58.30
2022-08-29T07:17:25.986Z,58.20
2022-08-29T07:20:14.987Z,57.60
2022-08-29T07:23:04.853Z,58.00
2022-08-29T07:25:53.648Z,57.50
2022-08-29T07:28:47.122Z,57.00
2022-08-29T07:31:35.860Z,56.90
2022-08-29T07:34:24.590Z,55.60
2022-08-29T07:37:13.167Z,55.80
2022-08-29T07:40:03.530Z,55.60
2022-08-29T07:42:52.063Z,55.30
2022-08-29T07:45:41.519Z,55.10
2022-08-29T07:48:30.012Z,54.90
2022-08-29T07:51:21.711Z,55.60
2022-08-29T07:54:11.128Z,54.90
2022-08-29T07:57:01.039Z,54.90
2022-08-29T07:59:49.575Z,54.30
2022-08-29T08:02:38.132Z,55.00
2022-08-29T08:05:26.948Z,55.40
2022-08-29T08:08:15.768Z,54.20
2022-08-29T08:11:05.234Z,53.80
2022-08-29T08:13:55.495Z,52.70
2022-08-29T08:16:44.880Z,52.00
2022-08-29T08:19:33.531Z,52.40
2022-08-29T08:22:21.987Z,52.30
2022-08-29T08:25:10.999Z,52.20
2022-08-29T08:27:59.588Z,52.30
2022-08-29T08:30:49.506Z,52.50
2022-08-29T08:33:39.370Z,52.30
2022-08-29T08:36:29.783Z,52.90
2022-08-29T08:39:18.365Z,52.30
2022-08-29T08:42:13.563Z,52.50
2022-08-29T08:45:08.279Z,52.60
2022-08-29T08:48:03.508Z,52.90
2022-08-29T08:50:56.787Z,53.10
2022-08-29T08:53:48.272Z,52.60
2022-08-29T08:56:39.600Z,52.90
2022-08-29T08:59:31.539Z,52.60
2022-08-29T09:02:36.477Z,52.70
2022-08-29T09:05:35.923Z,52.40
2022-08-29T09:08:29.819Z,52.70
2022-08-29T09:11:23.376Z,53.20
2022-08-29T09:14:23.116Z,53.30
2022-08-29T09:17:15.186Z,53.70
2022-08-29T09:20:05.369Z,54.00
2022-08-29T09:23:00.739Z,53.60
2022-08-29T09:25:49.379Z,53.10
2022-08-29T09:28:37.867Z,53.10
2022-08-29T09:31:27.897Z,53.20
2022-08-29T09:34:16.332Z,53.30
2022-08-29T09:37:05.389Z,53.20
2022-08-29T09:40:00.091Z,53.10
2022-08-29T09:42:53.332Z,52.80
2022-08-29T09:45:41.814Z,52.70
2022-08-29T09:48:35.329Z,53.70
2022-08-29T09:51:28.923Z,53.20
2022-08-29T09:54:24.629Z,53.30
2022-08-29T09:57:23.487Z,53.40
2022-08-29T10:00:14.654Z,53.30
2022-08-29T10:03:05.243Z,52.60
2022-08-29T10:06:07.553Z,52.50
2022-08-29T10:09:03.485Z,52.80
2022-08-29T10:11:56.629Z,52.90
2022-08-29T10:14:50.443Z,52.90
2022-08-29T10:18:00.079Z,52.50
2022-08-29T10:21:00.206Z,52.40
2022-08-29T10:24:03.561Z,51.60
2022-08-29T10:26:57.343Z,51.70
2022-08-29T10:30:03.000Z,50.60
2022-08-29T10:33:16.038Z,50.20
2022-08-29T10:36:09.371Z,50.20
2022-08-29T10:39:01.653Z,50.10
2022-08-29T10:41:56.517Z,49.90
2022-08-29T10:44:56.281Z,50.20
2022-08-29T10:47:52.152Z,50.00
2022-08-29T10:50:45.284Z,49.50
2022-08-29T10:53:37.542Z,49.30
2022-08-29T10:56:29.819Z,48.30
2022-08-29T10:59:27.526Z,47.30
2022-08-29T11:02:23.016Z,46.80
2022-08-29T11:05:15.954Z,46.40
2022-08-29T11:08:16.191Z,46.70
2022-08-29T11:11:04.948Z,46.20
2022-08-29T11:13:56.938Z,46.40
2022-08-29T11:16:47.635Z,46.00
2022-08-29T11:19:47.182Z,45.60
2022-08-29T11:22:38.682Z,46.10
2022-08-29T11:25:27.623Z,45.80
2022-08-29T11:28:22.012Z,45.50
2022-08-29T11:31:15.969Z,44.50
2022-08-29T11:34:14.855Z,43.70
2022-08-29T11:37:36.747Z,43.40
2022-08-29T11:41:26.293Z,43.40
2022-08-29T11:43:54.209Z,42.80
2022-08-29T11:46:44.494Z,43.70
2022-08-29T11:49:42.029Z,43.30
2022-08-29T11:52:31.933Z,43.00
2022-08-29T11:55:35.720Z,43.00
2022-08-29T11:58:46.606Z,42.20
2022-08-29T12:02:00.575Z,41.90
2022-08-29T12:04:54.942Z,40.60
2022-08-29T12:07:48.065Z,41.40
2022-08-29T12:10:52.494Z,41.60
2022-08-29T12:14:04.812Z,40.90
2022-08-29T12:16:53.972Z,41.60
2022-08-29T12:19:54.125Z,41.40
2022-08-29T12:22:53.290Z,41.30
2022-08-29T12:25:45.823Z,40.70
2022-08-29T12:28:58.081Z,40.10
2022-08-29T12:32:22.947Z,38.90
2022-08-29T12:36:03.248Z,39.70
2022-08-29T12:39:02.180Z,40.30
2022-08-29T12:42:11.089Z,39.60
2022-08-29T12:45:01.992Z,40.00
2022-08-29T12:47:53.602Z,39.90
2022-08-29T12:50:45.296Z,39.40
2022-08-29T12:53:35.088Z,39.30
2022-08-29T12:56:25.762Z,39.10
2022-08-29T12:59:18.568Z,39.40
2022-08-29T13:02:07.278Z,39.10
2022-08-29T13:04:56.416Z,39.10
2022-08-29T13:07:54.980Z,38.80
2022-08-29T13:10:53.500Z,38.80
2022-08-29T13:13:43.564Z,39.10
2022-08-29T13:16:32.542Z,38.70
2022-08-29T13:19:21.584Z,38.10
2022-08-29T13:22:13.569Z,38.10
2022-08-29T13:25:05.809Z,38.10
2022-08-29T13:28:09.861Z,38.00
2022-08-29T13:31:34.465Z,38.00
2022-08-29T13:34:23.326Z,37.30
2022-08-29T13:37:29.378Z,38.10
2022-08-29T13:40:33.880Z,37.70
2022-08-29T13:43:36.930Z,38.00
2022-08-29T13:46:28.057Z,37.30
2022-08-29T13:49:22.488Z,37.10
2022-08-29T13:52:11.557Z,36.30
2022-08-29T13:55:00.043Z,36.20
2022-08-29T13:57:50.191Z,36.90
2022-08-29T14:00:38.754Z,36.80
2022-08-29T14:03:28.688Z,37.10
2022-08-29T14:06:18.682Z,37.80
2022-08-29T14:09:07.403Z,37.80
2022-08-29T14:11:55.849Z,38.00
2022-08-29T14:14:44.998Z,37.70
2022-08-29T14:17:33.581Z,37.70
2022-08-29T14:20:22.032Z,37.20
2022-08-29T14:23:11.831Z,36.50
2022-08-29T14:26:00.359Z,36.90
2022-08-29T14:28:48.948Z,36.90
2022-08-29T14:31:37.984Z,37.00
2022-08-29T14:34:30.847Z,37.00
2022-08-29T14:37:21.232Z,37.10
2022-08-29T14:40:11.564Z,37.20
2022-08-29T14:43:00.209Z,37.10
2022-08-29T14:45:48.753Z,37.10
2022-08-29T14:48:37.246Z,36.80
2022-08-29T14:51:25.750Z,36.60
2022-08-29T14:54:14.850Z,36.60
2022-08-29T14:57:04.813Z,36.40
2022-08-29T14:59:53.435Z,36.90
2022-08-29T15:02:41.964Z,36.60
2022-08-29T15:05:30.589Z,36.20
2022-08-29T15:08:19.730Z,35.70
2022-08-29T15:11:09.161Z,36.30
2022-08-29T15:14:04.376Z,36.40
2022-08-29T15:16:53.535Z,36.10
2022-08-29T15:20:31.661Z,36.20
2022-08-29T15:22:51.980Z,35.60
2022-08-29T15:25:45.136Z,36.20
2022-08-29T15:28:40.550Z,36.20
2022-08-29T15:31:30.950Z,36.40
2022-08-29T15:34:22.040Z,36.40
2022-08-29T15:37:11.652Z,35.70
2022-08-29T15:40:00.277Z,36.70
2022-08-29T15:42:48.890Z,36.80
2022-08-29T15:48:28.356Z,36.50
2022-08-29T15:51:16.821Z,36.40
2022-08-29T15:54:05.587Z,37.20
2022-08-29T15:56:54.204Z,36.50
2022-08-29T15:59:57.608Z,36.60
2022-08-29T16:02:47.094Z,36.50
2022-08-29T16:05:38.210Z,36.50
2022-08-29T16:08:29.853Z,36.30
2022-08-29T16:11:18.508Z,36.40
2022-08-29T16:14:40.912Z,36.70
2022-08-29T16:17:15.577Z,36.80
2022-08-29T16:20:05.627Z,36.80
2022-08-29T16:22:56.158Z,36.90
2022-08-29T16:25:44.825Z,36.80
2022-08-29T16:28:33.347Z,36.90
2022-08-29T16:31:21.862Z,37.00
2022-08-29T16:34:10.347Z,37.10
2022-08-29T16:36:59.362Z,37.00
2022-08-29T16:39:49.124Z,36.90
2022-08-29T16:42:39.160Z,37.10
2022-08-29T16:45:27.617Z,37.10
2022-08-29T16:48:17.674Z,37.30
2022-08-29T16:51:08.160Z,37.20
2022-08-29T16:53:57.835Z,37.30
2022-08-29T16:56:47.732Z,37.50
2022-08-29T16:59:37.163Z,37.50
2022-08-29T17:02:25.885Z,37.50
2022-08-29T17:05:14.666Z,37.70
2022-08-29T17:08:02.470Z,37.70
2022-08-29T17:10:49.869Z,37.80
2022-08-29T17:13:40.364Z,37.80
2022-08-29T17:16:28.967Z,37.80
2022-08-29T17:19:17.550Z,38.10
2022-08-29T17:22:06.160Z,38.00
2022-08-29T17:24:54.763Z,38.10
2022-08-29T17:28:00.969Z,38.00
2022-08-29T17:30:53.228Z,37.90
2022-08-29T17:33:41.876Z,38.00
2022-08-29T17:36:30.349Z,38.10
2022-08-29T17:39:20.925Z,38.30
2022-08-29T17:42:10.011Z,38.40
2022-08-29T17:44:58.489Z,38.30
2022-08-29T17:47:48.262Z,38.60
2022-08-29T17:50:37.781Z,38.40
2022-08-29T17:53:26.221Z,38.50
2022-08-29T17:56:16.643Z,38.60
2022-08-29T17:59:05.828Z,38.90
2022-08-29T18:01:55.288Z,38.70
2022-08-29T18:04:45.483Z,38.70
2022-08-29T18:07:34.021Z,39.00
2022-08-29T18:10:23.041Z,39.10
2022-08-29T18:13:11.549Z,39.10
2022-08-29T18:16:00.075Z,39.50
2022-08-29T18:18:51.585Z,39.40
2022-08-29T18:21:43.239Z,39.50
2022-08-29T18:24:31.921Z,39.60
2022-08-29T18:27:20.395Z,39.60
2022-08-29T18:30:10.312Z,39.50
2022-08-29T18:32:58.788Z,39.70
2022-08-29T18:35:47.559Z,39.80
2022-08-29T18:38:37.784Z,39.90
2022-08-29T18:41:26.701Z,40.10
2022-08-29T18:44:15.221Z,40.10
2022-08-29T18:47:03.720Z,40.30
2022-08-29T18:50:09.883Z,40.30
2022-08-29T18:52:58.331Z,40.50
2022-08-29T18:55:50.478Z,40.50
2022-08-29T18:58:41.211Z,40.60
2022-08-29T19:01:30.448Z,40.60
2022-08-29T19:04:22.283Z,40.70
2022-08-29T19:07:15.587Z,40.80
2022-08-29T19:10:10.057Z,40.80
2022-08-29T19:13:00.199Z,41.00
2022-08-29T19:15:48.836Z,41.00
2022-08-29T19:18:37.637Z,41.70
2022-08-29T19:21:26.201Z,41.20
2022-08-29T19:24:14.842Z,41.20
2022-08-29T19:27:03.768Z,41.30
2022-08-29T19:29:54.274Z,41.40
2022-08-29T19:32:48.643Z,41.60
2022-08-29T19:35:37.922Z,41.50
2022-08-29T19:38:27.520Z,41.70
2022-08-29T19:41:17.535Z,41.80
2022-08-29T19:44:06.030Z,41.70
2022-08-29T19:46:55.806Z,41.90
2022-08-29T19:49:45.309Z,42.10
2022-08-29T19:52:34.055Z,42.20
2022-08-29T19:55:23.396Z,42.30
2022-08-29T19:58:12.736Z,42.30
2022-08-29T20:01:02.644Z,42.40
2022-08-29T20:03:53.001Z,42.60
2022-08-29T20:06:41.523Z,42.80
2022-08-29T20:09:32.543Z,43.00
2022-08-29T20:12:22.226Z,42.90
2022-08-29T20:15:12.665Z,43.10
2022-08-29T20:18:02.357Z,43.10
2022-08-29T20:20:55.389Z,43.00
2022-08-29T20:23:49.674Z,43.50
2022-08-29T20:26:39.580Z,43.20
2022-08-29T20:29:28.133Z,43.20
2022-08-29T20:32:18.678Z,43.40
2022-08-29T20:35:07.702Z,43.40
2022-08-29T20:37:56.496Z,43.20
2022-08-29T20:40:46.848Z,43.40
2022-08-29T20:43:37.793Z,43.40
2022-08-29T20:46:28.433Z,43.60
2022-08-29T20:49:19.543Z,43.60
2022-08-29T20:52:08.116Z,43.60
2022-08-29T20:54:58.049Z,43.60
2022-08-29T20:57:46.535Z,43.80
2022-08-29T21:00:35.110Z,43.80
2022-08-29T21:03:41.114Z,43.80
2022-08-29T21:06:31.237Z,43.80
2022-08-29T21:09:19.712Z,43.90
2022-08-29T21:12:09.893Z,44.00
2022-08-29T21:14:58.350Z,44.20
2022-08-29T21:17:46.925Z,44.00
2022-08-29T21:20:37.369Z,44.10
2022-08-29T21:23:34.231Z,44.30
2022-08-29T21:26:22.736Z,44.40
2022-08-29T21:29:12.531Z,44.30
2022-08-29T21:32:01.089Z,44.40
2022-08-29T21:34:49.707Z,44.50
2022-08-29T21:37:39.131Z,44.60
2022-08-29T21:40:27.691Z,44.70
2022-08-29T21:43:16.696Z,45.40
2022-08-29T21:46:16.632Z,44.90
2022-08-29T21:49:07.007Z,45.00
2022-08-29T21:51:55.960Z,45.00
2022-08-29T21:54:44.441Z,44.90
2022-08-29T21:57:50.508Z,45.20
2022-08-29T22:00:42.085Z,45.20
2022-08-29T22:03:33.209Z,45.30
2022-08-29T22:06:21.755Z,45.50
2022-08-29T22:09:11.495Z,45.50
2022-08-29T22:12:00.368Z,45.50
2022-08-29T22:15:06.420Z,45.70
2022-08-29T22:17:55.060Z,45.70
2022-08-29T22:20:46.541Z,46.30
2022-08-29T22:23:35.225Z,46.00
2022-08-29T22:26:23.702Z,45.90
2022-08-29T22:29:13.583Z,46.10
2022-08-29T22:32:02.055Z,46.10
2022-08-29T22:34:50.539Z,46.40
2022-08-29T22:37:40.399Z,46.40
2022-08-29T22:40:29.837Z,46.60
2022-08-29T22:43:18.437Z,46.60
2022-08-29T22:46:12.613Z,46.60
2022-08-29T22:49:01.211Z,47.10
2022-08-29T22:51:49.700Z,46.90
2022-08-29T22:54:39.725Z,46.90
2022-08-29T22:57:28.327Z,47.20
2022-08-29T23:00:19.256Z,47.30
2022-08-29T23:03:07.928Z,47.50
2022-08-29T23:05:56.493Z,47.60
2022-08-29T23:08:45.039Z,47.60
2022-08-29T23:11:36.044Z,47.90
2022-08-29T23:14:24.543Z,48.10
2022-08-29T23:17:16.927Z,48.20
2022-08-29T23:20:06.050Z,48.30
2022-08-29T23:22:54.491Z,48.40
2022-08-29T23:25:43.154Z,48.40
2022-08-29T23:28:33.032Z,48.50
2022-08-29T23:31:22.278Z,48.60
2022-08-29T23:34:10.759Z,48.70
2022-08-29T23:36:59.472Z,48.70
2022-08-29T23:39:48.023Z,48.70
2022-08-29T23:42:37.012Z,48.90
2022-08-29T23:45:27.006Z,48.90
2022-08-29T23:48:15.622Z,49.00
2022-08-29T23:51:07.286Z,49.00
2022-08-29T23:53:55.766Z,49.10
2022-08-29T23:56:44.294Z,48.90
2022-08-29T23:59:51.473Z,49.10
